sensor_id;sensor_type;location;lat;lon;timestamp;pressure;altitude;pressure_sealevel;temperature;humidity
44825;BME280;30542;47.928;2.138;2023-02-18T00:04:43;101755.38;;;19.95;50.38
44825;BME280;30542;47.928;2.138;2023-02-18T00:09:44;101762.59;;;19.94;50.36
44825;BME280;30542;47.928;2.138;2023-02-18T00:14:44;101754.00;;;19.92;50.39
44825;BME280;30542;47.928;2.138;2023-02-18T00:19:44;101758.97;;;19.89;50.44
44825;BME280;30542;47.928;2.138;2023-02-18T00:24:45;101750.97;;;19.89;50.20
44825;BME280;30542;47.928;2.138;2023-02-18T00:29:45;101745.25;;;19.85;50.35
44825;BME280;30542;47.928;2.138;2023-02-18T00:34:45;101757.00;;;19.84;50.30
44825;BME280;30542;47.928;2.138;2023-02-18T00:39:46;101755.59;;;19.81;50.41
44825;BME280;30542;47.928;2.138;2023-02-18T00:44:46;101755.81;;;19.80;50.41
44825;BME280;30542;47.928;2.138;2023-02-18T00:49:47;101755.47;;;19.76;50.79
44825;BME280;30542;47.928;2.138;2023-02-18T00:54:47;101753.69;;;19.70;51.10
44825;BME280;30542;47.928;2.138;2023-02-18T00:59:48;101755.31;;;19.71;50.99
44825;BME280;30542;47.928;2.138;2023-02-18T01:04:48;101759.50;;;19.67;50.83
44825;BME280;30542;47.928;2.138;2023-02-18T01:09:48;101750.06;;;19.65;50.63
44825;BME280;30542;47.928;2.138;2023-02-18T01:14:49;101747.84;;;19.61;50.66
44825;BME280;30542;47.928;2.138;2023-02-18T01:19:49;101743.97;;;19.57;50.96
44825;BME280;30542;47.928;2.138;2023-02-18T01:24:50;101743.97;;;19.57;50.99
44825;BME280;30542;47.928;2.138;2023-02-18T01:29:50;101731.88;;;19.55;51.03
44825;BME280;30542;47.928;2.138;2023-02-18T01:34:51;101733.38;;;19.51;51.29
44825;BME280;30542;47.928;2.138;2023-02-18T01:39:51;101738.09;;;19.49;51.24
44825;BME280;30542;47.928;2.138;2023-02-18T01:44:51;101736.47;;;19.48;51.21
44825;BME280;30542;47.928;2.138;2023-02-18T01:49:52;101749.03;;;19.47;51.20
44825;BME280;30542;47.928;2.138;2023-02-18T01:54:56;101732.06;;;19.42;51.49
44825;BME280;30542;47.928;2.138;2023-02-18T02:00:00;101743.09;;;19.45;51.29
44825;BME280;30542;47.928;2.138;2023-02-18T02:05:03;101742.06;;;19.46;51.31
44825;BME280;30542;47.928;2.138;2023-02-18T02:10:04;101740.19;;;19.47;51.10
44825;BME280;30542;47.928;2.138;2023-02-18T02:31:12;101720.06;;;19.44;51.08
44825;BME280;30542;47.928;2.138;2023-02-18T02:36:26;101704.03;;;19.44;51.13
44825;BME280;30542;47.928;2.138;2023-02-18T02:41:45;101692.78;;;19.42;50.76
44825;BME280;30542;47.928;2.138;2023-02-18T02:46:59;101689.50;;;19.40;51.17
44825;BME280;30542;47.928;2.138;2023-02-18T02:52:18;101683.34;;;19.40;51.26
44825;BME280;30542;47.928;2.138;2023-02-18T03:18:07;101680.56;;;19.34;50.90
44825;BME280;30542;47.928;2.138;2023-02-18T03:23:16;101670.09;;;19.33;51.31
44825;BME280;30542;47.928;2.138;2023-02-18T03:28:21;101656.38;;;19.29;50.95
44825;BME280;30542;47.928;2.138;2023-02-18T03:33:34;101657.63;;;19.27;50.80
44825;BME280;30542;47.928;2.138;2023-02-18T03:38:56;101657.19;;;19.30;50.88
44825;BME280;30542;47.928;2.138;2023-02-18T03:44:01;101640.78;;;19.26;51.00
44825;BME280;30542;47.928;2.138;2023-02-18T03:49:02;101635.91;;;19.23;50.81
44825;BME280;30542;47.928;2.138;2023-02-18T03:54:02;101633.69;;;19.20;51.14
44825;BME280;30542;47.928;2.138;2023-02-18T03:59:03;101643.91;;;19.23;50.81
44825;BME280;30542;47.928;2.138;2023-02-18T04:04:03;101637.75;;;19.23;50.88
44825;BME280;30542;47.928;2.138;2023-02-18T04:09:04;101639.84;;;19.21;51.08
44825;BME280;30542;47.928;2.138;2023-02-18T04:14:09;101637.19;;;19.21;51.15
44825;BME280;30542;47.928;2.138;2023-02-18T04:19:12;101642.53;;;19.21;50.70
44825;BME280;30542;47.928;2.138;2023-02-18T04:24:12;101641.72;;;19.20;50.82
44825;BME280;30542;47.928;2.138;2023-02-18T04:29:12;101642.72;;;19.19;50.81
44825;BME280;30542;47.928;2.138;2023-02-18T04:34:13;101662.25;;;19.20;50.93
44825;BME280;30542;47.928;2.138;2023-02-18T04:39:13;101647.69;;;19.16;50.97
44825;BME280;30542;47.928;2.138;2023-02-18T04:44:14;101661.06;;;19.16;50.92
44825;BME280;30542;47.928;2.138;2023-02-18T04:49:14;101652.09;;;19.10;50.95
44825;BME280;30542;47.928;2.138;2023-02-18T04:54:14;101655.94;;;19.14;50.96
44825;BME280;30542;47.928;2.138;2023-02-18T04:59:15;101657.22;;;19.11;50.74
44825;BME280;30542;47.928;2.138;2023-02-18T05:04:15;101664.41;;;19.11;50.82
44825;BME280;30542;47.928;2.138;2023-02-18T05:09:16;101656.63;;;19.09;51.04
44825;BME280;30542;47.928;2.138;2023-02-18T05:14:17;101665.69;;;19.08;51.06
44825;BME280;30542;47.928;2.138;2023-02-18T05:19:17;101664.41;;;19.11;50.77
44825;BME280;30542;47.928;2.138;2023-02-18T05:24:17;101669.44;;;19.19;50.33
44825;BME280;30542;47.928;2.138;2023-02-18T05:29:18;101671.44;;;19.24;50.07
44825;BME280;30542;47.928;2.138;2023-02-18T05:34:18;101661.34;;;19.26;50.41
44825;BME280;30542;47.928;2.138;2023-02-18T05:39:19;101655.56;;;19.29;50.38
44825;BME280;30542;47.928;2.138;2023-02-18T05:44:19;101661.03;;;19.34;50.25
44825;BME280;30542;47.928;2.138;2023-02-18T05:49:33;101661.97;;;19.40;50.27
44825;BME280;30542;47.928;2.138;2023-02-18T05:54:34;101662.72;;;19.47;50.19
44825;BME280;30542;47.928;2.138;2023-02-18T05:59:35;101655.88;;;19.51;50.02
44825;BME280;30542;47.928;2.138;2023-02-18T06:04:35;101662.16;;;19.56;49.54
44825;BME280;30542;47.928;2.138;2023-02-18T06:09:36;101662.50;;;19.60;49.78
44825;BME280;30542;47.928;2.138;2023-02-18T06:14:37;101657.56;;;19.64;49.83
44825;BME280;30542;47.928;2.138;2023-02-18T06:19:41;101667.81;;;19.67;49.81
44825;BME280;30542;47.928;2.138;2023-02-18T06:24:41;101659.31;;;19.70;49.54
44825;BME280;30542;47.928;2.138;2023-02-18T06:29:41;101661.53;;;19.73;49.56
44825;BME280;30542;47.928;2.138;2023-02-18T06:34:42;101662.94;;;19.75;49.61
44825;BME280;30542;47.928;2.138;2023-02-18T06:39:42;101669.66;;;19.78;49.37
44825;BME280;30542;47.928;2.138;2023-02-18T06:44:43;101673.50;;;19.82;49.36
44825;BME280;30542;47.928;2.138;2023-02-18T06:49:43;101677.84;;;19.83;49.20
44825;BME280;30542;47.928;2.138;2023-02-18T06:54:43;101675.72;;;19.85;49.22
44825;BME280;30542;47.928;2.138;2023-02-18T06:59:44;101670.75;;;19.89;49.12
44825;BME280;30542;47.928;2.138;2023-02-18T07:04:44;101680.63;;;19.88;49.10
44825;BME280;30542;47.928;2.138;2023-02-18T07:09:45;101681.81;;;19.92;49.06
44825;BME280;30542;47.928;2.138;2023-02-18T07:14:45;101681.56;;;19.94;48.78
44825;BME280;30542;47.928;2.138;2023-02-18T07:19:46;101684.72;;;19.91;48.96
44825;BME280;30542;47.928;2.138;2023-02-18T07:24:53;101681.91;;;19.97;48.92
44825;BME280;30542;47.928;2.138;2023-02-18T07:29:53;101669.94;;;19.88;48.89
44825;BME280;30542;47.928;2.138;2023-02-18T07:34:54;101685.75;;;20.01;49.10
44825;BME280;30542;47.928;2.138;2023-02-18T07:39:54;101689.03;;;20.03;49.20
44825;BME280;30542;47.928;2.138;2023-02-18T07:44:55;101678.34;;;20.03;49.19
44825;BME280;30542;47.928;2.138;2023-02-18T07:56:19;101691.03;;;20.08;48.82
44825;BME280;30542;47.928;2.138;2023-02-18T08:01:20;101680.78;;;20.05;48.90
44825;BME280;30542;47.928;2.138;2023-02-18T08:06:32;101693.22;;;20.11;48.64
44825;BME280;30542;47.928;2.138;2023-02-18T08:11:33;101693.22;;;20.11;48.11
44825;BME280;30542;47.928;2.138;2023-02-18T08:16:34;101691.81;;;20.08;47.66
44825;BME280;30542;47.928;2.138;2023-02-18T08:21:35;101696.13;;;20.09;47.74
44825;BME280;30542;47.928;2.138;2023-02-18T08:26:35;101699.63;;;20.10;47.58
44825;BME280;30542;47.928;2.138;2023-02-18T08:31:35;101696.94;;;20.10;47.77
44825;BME280;30542;47.928;2.138;2023-02-18T08:36:36;101704.97;;;20.10;47.87
44825;BME280;30542;47.928;2.138;2023-02-18T08:41:36;101696.47;;;20.13;47.88
44825;BME280;30542;47.928;2.138;2023-02-18T08:46:36;101709.63;;;20.15;48.00
44825;BME280;30542;47.928;2.138;2023-02-18T08:51:37;101709.41;;;20.16;48.34
44825;BME280;30542;47.928;2.138;2023-02-18T08:56:37;101701.13;;;20.18;48.16
44825;BME280;30542;47.928;2.138;2023-02-18T09:01:38;101709.16;;;20.18;48.47
44825;BME280;30542;47.928;2.138;2023-02-18T09:06:39;101709.16;;;20.18;48.62
44825;BME280;30542;47.928;2.138;2023-02-18T09:11:39;101716.72;;;20.21;48.47
44825;BME280;30542;47.928;2.138;2023-02-18T09:16:40;101723.72;;;20.22;48.54
44825;BME280;30542;47.928;2.138;2023-02-18T09:21:41;101729.06;;;20.22;48.47
44825;BME280;30542;47.928;2.138;2023-02-18T09:26:41;101731.16;;;20.20;48.23
44825;BME280;30542;47.928;2.138;2023-02-18T09:31:42;101735.91;;;20.18;48.43
44825;BME280;30542;47.928;2.138;2023-02-18T09:36:42;101740.22;;;20.19;48.56
44825;BME280;30542;47.928;2.138;2023-02-18T09:41:46;101744.53;;;20.20;49.04
44825;BME280;30542;47.928;2.138;2023-02-18T09:46:49;101750.47;;;20.22;49.44
44825;BME280;30542;47.928;2.138;2023-02-18T09:51:52;101749.19;;;20.24;50.91
44825;BME280;30542;47.928;2.138;2023-02-18T09:56:53;101747.91;;;20.27;51.22
44825;BME280;30542;47.928;2.138;2023-02-18T10:01:54;101745.22;;;20.27;51.32
44825;BME280;30542;47.928;2.138;2023-02-18T10:06:56;101750.00;;;20.25;51.22
44825;BME280;30542;47.928;2.138;2023-02-18T10:12:06;101743.59;;;20.26;51.01
44825;BME280;30542;47.928;2.138;2023-02-18T10:17:12;101745.00;;;20.28;50.62
44825;BME280;30542;47.928;2.138;2023-02-18T10:22:16;101747.53;;;20.23;50.75
44825;BME280;30542;47.928;2.138;2023-02-18T10:32:34;101749.53;;;20.28;50.52
44825;BME280;30542;47.928;2.138;2023-02-18T10:43:18;101749.06;;;20.31;50.54
44825;BME280;30542;47.928;2.138;2023-02-18T10:48:47;101743.50;;;20.32;50.61
44825;BME280;30542;47.928;2.138;2023-02-18T10:53:53;101748.63;;;20.34;50.60
44825;BME280;30542;47.928;2.138;2023-02-18T10:59:01;101751.28;;;20.34;50.66
44825;BME280;30542;47.928;2.138;2023-02-18T11:04:12;101746.50;;;20.36;50.71
44825;BME280;30542;47.928;2.138;2023-02-18T11:09:49;101735.81;;;20.36;50.72
44825;BME280;30542;47.928;2.138;2023-02-18T11:15:05;101735.00;;;20.35;50.77
44825;BME280;30542;47.928;2.138;2023-02-18T11:25:36;101726.75;;;20.37;50.53
44825;BME280;30542;47.928;2.138;2023-02-18T11:30:38;101722.56;;;20.41;50.66
44825;BME280;30542;47.928;2.138;2023-02-18T11:35:48;101723.38;;;20.42;50.63
44825;BME280;30542;47.928;2.138;2023-02-18T11:40:55;101713.50;;;20.42;50.60
44825;BME280;30542;47.928;2.138;2023-02-18T11:46:12;101719.66;;;20.43;50.57
44825;BME280;30542;47.928;2.138;2023-02-18T11:51:23;101709.28;;;20.46;50.56
44825;BME280;30542;47.928;2.138;2023-02-18T11:56:32;101698.16;;;20.49;51.11
44825;BME280;30542;47.928;2.138;2023-02-18T12:06:42;101695.84;;;20.53;52.01
44825;BME280;30542;47.928;2.138;2023-02-18T12:11:49;101686.66;;;20.49;52.68
44825;BME280;30542;47.928;2.138;2023-02-18T13:16:23;101642.84;;;20.43;55.82
44825;BME280;30542;47.928;2.138;2023-02-18T13:21:25;101635.88;;;20.42;55.68
44825;BME280;30542;47.928;2.138;2023-02-18T13:26:30;101639.59;;;20.41;55.55
44825;BME280;30542;47.928;2.138;2023-02-18T13:37:03;101634.72;;;20.38;55.80
44825;BME280;30542;47.928;2.138;2023-02-18T13:47:41;101625.53;;;20.34;55.74
44825;BME280;30542;47.928;2.138;2023-02-18T13:52:42;101614.81;;;20.34;55.88
44825;BME280;30542;47.928;2.138;2023-02-18T13:57:48;101618.56;;;20.33;55.68
44825;BME280;30542;47.928;2.138;2023-02-18T14:03:01;101609.94;;;20.31;56.38
44825;BME280;30542;47.928;2.138;2023-02-18T14:08:12;101609.13;;;20.30;56.30
44825;BME280;30542;47.928;2.138;2023-02-18T14:13:25;101599.59;;;20.23;56.45
44825;BME280;30542;47.928;2.138;2023-02-18T14:23:58;101608.22;;;20.25;56.82
44825;BME280;30542;47.928;2.138;2023-02-18T14:29:11;101604.72;;;20.24;57.29
44825;BME280;30542;47.928;2.138;2023-02-18T14:50:19;101593.06;;;20.19;57.55
44825;BME280;30542;47.928;2.138;2023-02-18T14:55:24;101596.81;;;20.18;57.66
44825;BME280;30542;47.928;2.138;2023-02-18T15:00:28;101591.69;;;20.16;57.69
44825;BME280;30542;47.928;2.138;2023-02-18T15:05:31;101595.41;;;20.15;57.97
44825;BME280;30542;47.928;2.138;2023-02-18T15:10:40;101594.38;;;20.16;57.96
44825;BME280;30542;47.928;2.138;2023-02-18T15:15:42;101591.69;;;20.16;58.05
44825;BME280;30542;47.928;2.138;2023-02-18T15:20:44;101590.66;;;20.17;58.13
44825;BME280;30542;47.928;2.138;2023-02-18T15:25:49;101584.94;;;20.14;57.90
44825;BME280;30542;47.928;2.138;2023-02-18T15:30:50;101586.34;;;20.16;58.13
44825;BME280;30542;47.928;2.138;2023-02-18T15:35:51;101587.16;;;20.17;57.74
44825;BME280;30542;47.928;2.138;2023-02-18T15:40:53;101574.50;;;20.12;58.24
44825;BME280;30542;47.928;2.138;2023-02-18T15:45:56;101573.19;;;20.15;58.09
44825;BME280;30542;47.928;2.138;2023-02-18T15:51:03;101566.22;;;20.14;58.14
44825;BME280;30542;47.928;2.138;2023-02-18T15:56:14;101570.75;;;20.13;58.20
44825;BME280;30542;47.928;2.138;2023-02-18T16:01:28;101564.59;;;20.13;58.18
44825;BME280;30542;47.928;2.138;2023-02-18T16:06:30;101561.94;;;20.13;58.22
44825;BME280;30542;47.928;2.138;2023-02-18T16:11:58;101554.00;;;20.06;58.34
44825;BME280;30542;47.928;2.138;2023-02-18T16:22:21;101557.63;;;20.11;58.32
44825;BME280;30542;47.928;2.138;2023-02-18T16:27:29;101563.78;;;20.12;58.03
44825;BME280;30542;47.928;2.138;2023-02-18T16:32:30;101557.63;;;20.11;58.14
44825;BME280;30542;47.928;2.138;2023-02-18T16:37:31;101556.59;;;20.13;58.30
44825;BME280;30542;47.928;2.138;2023-02-18T16:42:40;101560.88;;;20.14;58.76
44825;BME280;30542;47.928;2.138;2023-02-18T16:47:43;101552.38;;;20.17;58.63
44825;BME280;30542;47.928;2.138;2023-02-18T16:52:44;101546.34;;;20.21;59.01
44825;BME280;30542;47.928;2.138;2023-02-18T16:57:45;101554.69;;;20.25;59.16
44825;BME280;30542;47.928;2.138;2023-02-18T17:02:48;101549.44;;;20.30;59.45
44825;BME280;30542;47.928;2.138;2023-02-18T17:07:49;101548.66;;;20.29;59.32
44825;BME280;30542;47.928;2.138;2023-02-18T17:12:50;101548.38;;;20.43;59.08
44825;BME280;30542;47.928;2.138;2023-02-18T17:17:50;101551.53;;;20.51;58.00
44825;BME280;30542;47.928;2.138;2023-02-18T17:22:50;101544.91;;;20.54;57.38
44825;BME280;30542;47.928;2.138;2023-02-18T17:27:51;101550.81;;;20.56;57.37
44825;BME280;30542;47.928;2.138;2023-02-18T17:32:51;101543.59;;;20.56;57.38
44825;BME280;30542;47.928;2.138;2023-02-18T17:37:52;101553.25;;;20.57;57.44
44825;BME280;30542;47.928;2.138;2023-02-18T17:42:53;101559.44;;;20.58;57.76
44825;BME280;30542;47.928;2.138;2023-02-18T17:47:55;101552.22;;;20.58;58.13
44825;BME280;30542;47.928;2.138;2023-02-18T17:52:56;101556.75;;;20.58;58.44
44825;BME280;30542;47.928;2.138;2023-02-18T17:57:57;101556.16;;;20.56;58.53
44825;BME280;30542;47.928;2.138;2023-02-18T18:02:58;101559.66;;;20.56;58.37
44825;BME280;30542;47.928;2.138;2023-02-18T18:08:00;101553.72;;;20.54;58.54
44825;BME280;30542;47.928;2.138;2023-02-18T18:13:06;101559.34;;;20.53;58.27
44825;BME280;30542;47.928;2.138;2023-02-18T18:18:09;101565.38;;;20.48;58.07
44825;BME280;30542;47.928;2.138;2023-02-18T18:23:12;101566.84;;;20.44;58.04
44825;BME280;30542;47.928;2.138;2023-02-18T18:28:13;101564.69;;;20.41;57.88
44825;BME280;30542;47.928;2.138;2023-02-18T18:38:17;101575.38;;;20.41;57.92
44825;BME280;30542;47.928;2.138;2023-02-18T18:43:27;101565.16;;;20.38;57.66
44825;BME280;30542;47.928;2.138;2023-02-18T18:48:27;101568.63;;;20.39;57.56
44825;BME280;30542;47.928;2.138;2023-02-18T18:53:30;101559.56;;;20.28;57.43
44825;BME280;30542;47.928;2.138;2023-02-18T18:58:31;101572.81;;;20.34;57.54
44825;BME280;30542;47.928;2.138;2023-02-18T19:03:32;101570.97;;;20.35;57.64
44825;BME280;30542;47.928;2.138;2023-02-18T19:08:34;101572.00;;;20.34;57.54
44825;BME280;30542;47.928;2.138;2023-02-18T19:13:34;101578.41;;;20.33;57.62
44825;BME280;30542;47.928;2.138;2023-02-18T19:18:35;101579.44;;;20.32;57.54
44825;BME280;30542;47.928;2.138;2023-02-18T19:23:36;101586.91;;;20.30;57.46
44825;BME280;30542;47.928;2.138;2023-02-18T19:28:36;101591.44;;;20.29;57.34
44825;BME280;30542;47.928;2.138;2023-02-18T19:33:37;101573.78;;;20.28;57.42
44825;BME280;30542;47.928;2.138;2023-02-18T19:38:38;101572.94;;;20.28;57.40
44825;BME280;30542;47.928;2.138;2023-02-18T19:43:39;101569.34;;;20.22;57.47
44825;BME280;30542;47.928;2.138;2023-02-18T19:48:40;101574.25;;;20.25;57.34
44825;BME280;30542;47.928;2.138;2023-02-18T19:53:41;101569.69;;;20.26;57.54
44825;BME280;30542;47.928;2.138;2023-02-18T19:58:41;101570.97;;;20.23;57.55
44825;BME280;30542;47.928;2.138;2023-02-18T20:03:42;101570.16;;;20.23;57.28
44825;BME280;30542;47.928;2.138;2023-02-18T20:08:44;101565.53;;;20.18;57.32
44825;BME280;30542;47.928;2.138;2023-02-18T20:13:46;101574.94;;;20.21;57.16
44825;BME280;30542;47.928;2.138;2023-02-18T20:18:47;101575.41;;;20.18;57.21
44825;BME280;30542;47.928;2.138;2023-02-18T20:23:47;101578.91;;;20.18;57.08
44825;BME280;30542;47.928;2.138;2023-02-18T20:28:48;101583.44;;;20.18;57.31
44825;BME280;30542;47.928;2.138;2023-02-18T20:33:48;101577.28;;;20.17;57.17
44825;BME280;30542;47.928;2.138;2023-02-18T20:38:49;101573.78;;;20.17;57.02
44825;BME280;30542;47.928;2.138;2023-02-18T20:43:56;101578.09;;;20.18;57.25
44825;BME280;30542;47.928;2.138;2023-02-18T20:48:59;101572.97;;;20.16;57.11
44825;BME280;30542;47.928;2.138;2023-02-18T20:54:07;101571.13;;;20.17;56.92
44825;BME280;30542;47.928;2.138;2023-02-18T20:59:13;101578.53;;;20.15;56.97
44825;BME280;30542;47.928;2.138;2023-02-18T21:04:17;101575.88;;;20.15;56.96
44825;BME280;30542;47.928;2.138;2023-02-18T21:09:18;101577.53;;;20.16;56.83
44825;BME280;30542;47.928;2.138;2023-02-18T21:14:18;101570.50;;;20.15;56.84
44825;BME280;30542;47.928;2.138;2023-02-18T21:19:19;101580.41;;;20.14;56.69
44825;BME280;30542;47.928;2.138;2023-02-18T21:24:19;101577.53;;;20.16;56.37
44825;BME280;30542;47.928;2.138;2023-02-18T21:29:20;101573.19;;;20.15;56.62
44825;BME280;30542;47.928;2.138;2023-02-18T21:34:20;101564.16;;;20.16;56.77
44825;BME280;30542;47.928;2.138;2023-02-18T21:39:21;101552.59;;;20.15;56.46
44825;BME280;30542;47.928;2.138;2023-02-18T21:44:22;101556.13;;;20.16;56.46
44825;BME280;30542;47.928;2.138;2023-02-18T21:49:22;101565.97;;;20.15;56.47
44825;BME280;30542;47.928;2.138;2023-02-18T21:59:28;101560.41;;;20.17;56.09
44825;BME280;30542;47.928;2.138;2023-02-18T22:04:31;101556.13;;;20.16;56.33
44825;BME280;30542;47.928;2.138;2023-02-18T22:09:32;101563.91;;;20.17;56.23
44825;BME280;30542;47.928;2.138;2023-02-18T22:14:32;101560.31;;;20.11;55.91
44825;BME280;30542;47.928;2.138;2023-02-18T22:19:33;101559.81;;;20.15;55.90
44825;BME280;30542;47.928;2.138;2023-02-18T22:24:33;101558.19;;;20.14;56.19
44825;BME280;30542;47.928;2.138;2023-02-18T22:29:34;101567.50;;;20.11;56.21
44825;BME280;30542;47.928;2.138;2023-02-18T22:34:34;101570.41;;;20.09;56.35
44825;BME280;30542;47.928;2.138;2023-02-18T22:39:35;101546.69;;;20.01;56.50
44825;BME280;30542;47.928;2.138;2023-02-18T22:44:36;101565.31;;;20.08;56.09
44825;BME280;30542;47.928;2.138;2023-02-18T22:49:38;101562.28;;;20.04;56.18
44825;BME280;30542;47.928;2.138;2023-02-18T22:54:39;101566.56;;;20.05;56.16
44825;BME280;30542;47.928;2.138;2023-02-18T22:59:39;101565.16;;;20.03;56.11
44825;BME280;30542;47.928;2.138;2023-02-18T23:04:40;101563.56;;;20.02;55.79
44825;BME280;30542;47.928;2.138;2023-02-18T23:09:41;101556.81;;;19.99;56.16
44825;BME280;30542;47.928;2.138;2023-02-18T23:14:41;101555.41;;;19.97;56.11
44825;BME280;30542;47.928;2.138;2023-02-18T23:19:47;101552.41;;;19.93;55.89
44825;BME280;30542;47.928;2.138;2023-02-18T23:24:48;101558.19;;;19.90;55.75
44825;BME280;30542;47.928;2.138;2023-02-18T23:29:49;101563.44;;;19.85;55.59
44825;BME280;30542;47.928;2.138;2023-02-18T23:34:50;101557.53;;;19.83;55.19
44825;BME280;30542;47.928;2.138;2023-02-18T23:39:51;101564.50;;;19.84;54.99
44825;BME280;30542;47.928;2.138;2023-02-18T23:44:51;101562.53;;;19.79;54.87
44825;BME280;30542;47.928;2.138;2023-02-18T23:49:54;101567.16;;;19.84;54.66
44825;BME280;30542;47.928;2.138;2023-02-18T23:54:55;101548.00;;;19.75;54.94
44825;BME280;30542;47.928;2.138;2023-02-18T23:59:55;101560.19;;;19.83;54.63
